sensor_id;sensor_type;location;lat;lon;timestamp;temperature;humidity
74792;SHT30;63319;46.046;17.802;2022-11-14T00:00:34;21.00;54.18
74792;SHT30;63319;46.046;17.802;2022-11-14T00:03:56;21.02;54.33
74792;SHT30;63319;46.046;17.802;2022-11-14T00:07:17;21.00;54.24
74792;SHT30;63319;46.046;17.802;2022-11-14T00:10:39;21.02;53.86
74792;SHT30;63319;46.046;17.802;2022-11-14T00:14:00;21.00;54.22
74792;SHT30;63319;46.046;17.802;2022-11-14T00:17:21;20.99;54.10
74792;SHT30;63319;46.046;17.802;2022-11-14T00:20:42;20.98;53.99
74792;SHT30;63319;46.046;17.802;2022-11-14T00:24:04;20.96;53.91
74792;SHT30;63319;46.046;17.802;2022-11-14T00:27:25;20.99;54.23
74792;SHT30;63319;46.046;17.802;2022-11-14T00:30:47;20.98;54.10
74792;SHT30;63319;46.046;17.802;2022-11-14T00:34:08;20.95;54.28
74792;SHT30;63319;46.046;17.802;2022-11-14T00:37:30;20.95;54.17
74792;SHT30;63319;46.046;17.802;2022-11-14T00:40:51;20.92;54.15
74792;SHT30;63319;46.046;17.802;2022-11-14T00:44:13;20.92;53.94
74792;SHT30;63319;46.046;17.802;2022-11-14T00:47:34;20.94;54.18
74792;SHT30;63319;46.046;17.802;2022-11-14T00:50:55;20.94;54.05
74792;SHT30;63319;46.046;17.802;2022-11-14T00:54:16;20.94;53.90
74792;SHT30;63319;46.046;17.802;2022-11-14T00:57:37;20.94;54.11
74792;SHT30;63319;46.046;17.802;2022-11-14T01:00:58;20.91;54.10
74792;SHT30;63319;46.046;17.802;2022-11-14T01:04:20;20.91;53.83
74792;SHT30;63319;46.046;17.802;2022-11-14T01:07:44;20.92;53.93
74792;SHT30;63319;46.046;17.802;2022-11-14T01:11:11;20.91;54.04
74792;SHT30;63319;46.046;17.802;2022-11-14T01:14:32;20.89;53.75
74792;SHT30;63319;46.046;17.802;2022-11-14T01:17:53;20.87;54.09
74792;SHT30;63319;46.046;17.802;2022-11-14T01:21:15;20.91;53.98
74792;SHT30;63319;46.046;17.802;2022-11-14T01:24:36;20.88;53.88
74792;SHT30;63319;46.046;17.802;2022-11-14T01:27:58;20.88;54.27
74792;SHT30;63319;46.046;17.802;2022-11-14T01:31:21;20.88;54.19
74792;SHT30;63319;46.046;17.802;2022-11-14T01:34:42;20.87;53.71
74792;SHT30;63319;46.046;17.802;2022-11-14T01:38:04;20.88;54.04
74792;SHT30;63319;46.046;17.802;2022-11-14T01:41:27;20.91;53.92
74792;SHT30;63319;46.046;17.802;2022-11-14T01:44:50;20.89;53.62
74792;SHT30;63319;46.046;17.802;2022-11-14T01:48:49;20.88;53.98
74792;SHT30;63319;46.046;17.802;2022-11-14T01:52:19;20.88;54.12
74792;SHT30;63319;46.046;17.802;2022-11-14T01:55:42;20.88;54.06
74792;SHT30;63319;46.046;17.802;2022-11-14T01:59:07;20.87;54.04
74792;SHT30;63319;46.046;17.802;2022-11-14T02:02:29;20.84;54.27
74792;SHT30;63319;46.046;17.802;2022-11-14T02:05:51;20.85;54.01
74792;SHT30;63319;46.046;17.802;2022-11-14T02:09:13;20.85;53.73
74792;SHT30;63319;46.046;17.802;2022-11-14T02:12:35;20.84;54.30
74792;SHT30;63319;46.046;17.802;2022-11-14T02:15:57;20.84;53.85
74792;SHT30;63319;46.046;17.802;2022-11-14T02:19:19;20.79;53.60
74792;SHT30;63319;46.046;17.802;2022-11-14T02:22:41;20.81;54.20
74792;SHT30;63319;46.046;17.802;2022-11-14T02:26:02;20.79;54.11
74792;SHT30;63319;46.046;17.802;2022-11-14T02:29:23;20.78;53.72
74792;SHT30;63319;46.046;17.802;2022-11-14T02:32:44;20.79;54.14
74792;SHT30;63319;46.046;17.802;2022-11-14T02:36:25;20.77;53.93
74792;SHT30;63319;46.046;17.802;2022-11-14T02:39:48;20.75;53.93
74792;SHT30;63319;46.046;17.802;2022-11-14T02:43:09;20.75;54.21
74792;SHT30;63319;46.046;17.802;2022-11-14T02:46:30;20.78;53.97
74792;SHT30;63319;46.046;17.802;2022-11-14T02:49:52;20.74;54.09
74792;SHT30;63319;46.046;17.802;2022-11-14T02:53:13;20.77;54.15
74792;SHT30;63319;46.046;17.802;2022-11-14T02:56:35;20.77;54.27
74792;SHT30;63319;46.046;17.802;2022-11-14T02:59:56;20.75;54.16
74792;SHT30;63319;46.046;17.802;2022-11-14T03:03:17;20.77;54.03
74792;SHT30;63319;46.046;17.802;2022-11-14T03:06:39;20.74;54.21
74792;SHT30;63319;46.046;17.802;2022-11-14T03:10:00;20.74;54.26
74792;SHT30;63319;46.046;17.802;2022-11-14T03:13:22;20.72;54.40
74792;SHT30;63319;46.046;17.802;2022-11-14T03:16:43;20.74;53.99
74792;SHT30;63319;46.046;17.802;2022-11-14T03:20:05;20.72;54.56
74792;SHT30;63319;46.046;17.802;2022-11-14T03:23:27;20.68;54.62
74792;SHT30;63319;46.046;17.802;2022-11-14T03:26:48;20.69;54.28
74792;SHT30;63319;46.046;17.802;2022-11-14T03:30:10;20.69;54.50
74792;SHT30;63319;46.046;17.802;2022-11-14T03:33:32;20.69;54.37
74792;SHT30;63319;46.046;17.802;2022-11-14T03:36:54;20.68;54.16
74792;SHT30;63319;46.046;17.802;2022-11-14T03:40:16;20.68;53.99
74792;SHT30;63319;46.046;17.802;2022-11-14T03:43:37;20.67;54.00
74792;SHT30;63319;46.046;17.802;2022-11-14T03:46:58;20.64;54.21
74792;SHT30;63319;46.046;17.802;2022-11-14T03:50:20;20.64;54.24
74792;SHT30;63319;46.046;17.802;2022-11-14T03:53:42;20.64;54.12
74792;SHT30;63319;46.046;17.802;2022-11-14T03:57:03;20.61;54.42
74792;SHT30;63319;46.046;17.802;2022-11-14T04:00:25;20.64;54.17
74792;SHT30;63319;46.046;17.802;2022-11-14T04:03:48;20.63;54.10
74792;SHT30;63319;46.046;17.802;2022-11-14T04:07:10;20.64;54.18
74792;SHT30;63319;46.046;17.802;2022-11-14T04:10:31;20.60;54.31
74792;SHT30;63319;46.046;17.802;2022-11-14T04:13:52;20.60;53.93
74792;SHT30;63319;46.046;17.802;2022-11-14T04:17:14;20.60;53.97
74792;SHT30;63319;46.046;17.802;2022-11-14T04:20:36;20.58;54.35
74792;SHT30;63319;46.046;17.802;2022-11-14T04:23:57;20.60;54.42
74792;SHT30;63319;46.046;17.802;2022-11-14T04:27:18;20.58;54.53
74792;SHT30;63319;46.046;17.802;2022-11-14T04:30:41;20.61;55.16
74792;SHT30;63319;46.046;17.802;2022-11-14T04:34:02;20.63;55.22
74792;SHT30;63319;46.046;17.802;2022-11-14T04:37:23;20.67;55.19
74792;SHT30;63319;46.046;17.802;2022-11-14T04:40:51;20.72;55.11
74792;SHT30;63319;46.046;17.802;2022-11-14T04:44:12;20.72;55.05
74792;SHT30;63319;46.046;17.802;2022-11-14T04:47:34;20.78;55.07
74792;SHT30;63319;46.046;17.802;2022-11-14T04:50:55;20.77;55.01
74792;SHT30;63319;46.046;17.802;2022-11-14T04:54:17;20.81;54.97
74792;SHT30;63319;46.046;17.802;2022-11-14T04:57:38;20.79;55.01
74792;SHT30;63319;46.046;17.802;2022-11-14T05:01:06;20.82;54.95
74792;SHT30;63319;46.046;17.802;2022-11-14T05:04:27;20.81;54.98
74792;SHT30;63319;46.046;17.802;2022-11-14T05:07:48;20.84;54.91
74792;SHT30;63319;46.046;17.802;2022-11-14T05:11:14;20.82;54.91
74792;SHT30;63319;46.046;17.802;2022-11-14T05:14:36;20.84;54.86
74792;SHT30;63319;46.046;17.802;2022-11-14T05:17:57;20.87;54.86
74792;SHT30;63319;46.046;17.802;2022-11-14T05:21:19;20.87;54.81
74792;SHT30;63319;46.046;17.802;2022-11-14T05:24:40;20.87;54.79
74792;SHT30;63319;46.046;17.802;2022-11-14T05:28:01;20.89;54.73
74792;SHT30;63319;46.046;17.802;2022-11-14T05:31:22;20.91;54.70
74792;SHT30;63319;46.046;17.802;2022-11-14T05:34:43;20.88;54.65
74792;SHT30;63319;46.046;17.802;2022-11-14T05:38:05;20.89;54.38
74792;SHT30;63319;46.046;17.802;2022-11-14T05:41:26;20.88;54.33
74792;SHT30;63319;46.046;17.802;2022-11-14T05:44:47;20.85;54.17
74792;SHT30;63319;46.046;17.802;2022-11-14T05:48:08;20.81;54.18
74792;SHT30;63319;46.046;17.802;2022-11-14T05:51:30;20.81;54.33
74792;SHT30;63319;46.046;17.802;2022-11-14T05:54:51;20.82;54.25
74792;SHT30;63319;46.046;17.802;2022-11-14T05:58:12;20.81;54.16
74792;SHT30;63319;46.046;17.802;2022-11-14T06:01:33;20.79;54.05
74792;SHT30;63319;46.046;17.802;2022-11-14T06:04:55;20.77;54.10
74792;SHT30;63319;46.046;17.802;2022-11-14T06:08:16;20.77;53.97
74792;SHT30;63319;46.046;17.802;2022-11-14T06:11:37;20.78;54.07
74792;SHT30;63319;46.046;17.802;2022-11-14T06:14:59;20.79;54.24
74792;SHT30;63319;46.046;17.802;2022-11-14T06:18:20;20.79;53.87
74792;SHT30;63319;46.046;17.802;2022-11-14T06:21:42;20.79;54.05
74792;SHT30;63319;46.046;17.802;2022-11-14T06:25:03;20.79;54.16
74792;SHT30;63319;46.046;17.802;2022-11-14T06:28:24;20.82;54.18
74792;SHT30;63319;46.046;17.802;2022-11-14T06:31:45;20.85;54.20
74792;SHT30;63319;46.046;17.802;2022-11-14T06:35:07;20.84;53.99
74792;SHT30;63319;46.046;17.802;2022-11-14T06:38:33;20.87;53.94
74792;SHT30;63319;46.046;17.802;2022-11-14T06:41:55;20.88;54.20
74792;SHT30;63319;46.046;17.802;2022-11-14T06:45:16;20.92;53.69
74792;SHT30;63319;46.046;17.802;2022-11-14T06:48:37;20.96;54.14
74792;SHT30;63319;46.046;17.802;2022-11-14T06:51:59;20.98;54.21
74792;SHT30;63319;46.046;17.802;2022-11-14T06:55:21;20.96;54.21
74792;SHT30;63319;46.046;17.802;2022-11-14T06:58:47;20.99;54.02
74792;SHT30;63319;46.046;17.802;2022-11-14T07:02:11;21.00;54.10
74792;SHT30;63319;46.046;17.802;2022-11-14T07:05:41;20.99;53.95
74792;SHT30;63319;46.046;17.802;2022-11-14T07:09:03;21.00;53.61
74792;SHT30;63319;46.046;17.802;2022-11-14T07:12:24;21.03;53.88
74792;SHT30;63319;46.046;17.802;2022-11-14T07:15:51;18.99;51.25
74792;SHT30;63319;46.046;17.802;2022-11-14T07:19:14;19.58;57.36
74792;SHT30;63319;46.046;17.802;2022-11-14T07:22:35;19.79;55.99
74792;SHT30;63319;46.046;17.802;2022-11-14T07:26:05;19.73;56.19
74792;SHT30;63319;46.046;17.802;2022-11-14T07:29:30;19.65;58.01
74792;SHT30;63319;46.046;17.802;2022-11-14T07:32:55;19.82;55.89
74792;SHT30;63319;46.046;17.802;2022-11-14T07:36:17;19.85;58.38
74792;SHT30;63319;46.046;17.802;2022-11-14T07:39:44;19.94;57.81
74792;SHT30;63319;46.046;17.802;2022-11-14T07:43:26;20.05;56.98
74792;SHT30;63319;46.046;17.802;2022-11-14T07:46:51;19.90;55.58
74792;SHT30;63319;46.046;17.802;2022-11-14T07:50:13;20.08;55.67
74792;SHT30;63319;46.046;17.802;2022-11-14T07:53:40;20.13;55.99
74792;SHT30;63319;46.046;17.802;2022-11-14T07:57:01;20.13;57.23
74792;SHT30;63319;46.046;17.802;2022-11-14T08:00:23;19.65;51.84
74792;SHT30;63319;46.046;17.802;2022-11-14T08:03:44;18.35;55.95
74792;SHT30;63319;46.046;17.802;2022-11-14T08:07:06;17.71;56.67
74792;SHT30;63319;46.046;17.802;2022-11-14T08:10:28;17.67;58.04
74792;SHT30;63319;46.046;17.802;2022-11-14T08:13:53;17.52;56.17
74792;SHT30;63319;46.046;17.802;2022-11-14T08:17:15;17.67;57.83
74792;SHT30;63319;46.046;17.802;2022-11-14T08:20:36;17.40;59.35
74792;SHT30;63319;46.046;17.802;2022-11-14T08:23:57;17.54;57.53
74792;SHT30;63319;46.046;17.802;2022-11-14T08:27:19;18.28;61.08
74792;SHT30;63319;46.046;17.802;2022-11-14T08:30:40;19.00;59.40
74792;SHT30;63319;46.046;17.802;2022-11-14T08:34:02;19.44;59.37
74792;SHT30;63319;46.046;17.802;2022-11-14T08:37:23;19.99;58.01
74792;SHT30;63319;46.046;17.802;2022-11-14T08:40:44;20.21;53.54
74792;SHT30;63319;46.046;17.802;2022-11-14T08:44:06;20.21;52.01
74792;SHT30;63319;46.046;17.802;2022-11-14T08:47:27;20.20;52.21
74792;SHT30;63319;46.046;17.802;2022-11-14T08:50:49;19.81;51.43
74792;SHT30;63319;46.046;17.802;2022-11-14T08:54:16;19.81;50.70
74792;SHT30;63319;46.046;17.802;2022-11-14T08:57:37;20.29;51.55
74792;SHT30;63319;46.046;17.802;2022-11-14T09:01:02;20.41;51.80
74792;SHT30;63319;46.046;17.802;2022-11-14T09:04:24;20.52;51.12
74792;SHT30;63319;46.046;17.802;2022-11-14T09:07:46;20.26;50.55
74792;SHT30;63319;46.046;17.802;2022-11-14T09:11:07;20.20;50.77
74792;SHT30;63319;46.046;17.802;2022-11-14T09:14:30;20.06;51.52
74792;SHT30;63319;46.046;17.802;2022-11-14T09:17:53;19.69;52.09
74792;SHT30;63319;46.046;17.802;2022-11-14T09:21:14;19.90;52.15
74792;SHT30;63319;46.046;17.802;2022-11-14T09:24:36;20.23;51.09
74792;SHT30;63319;46.046;17.802;2022-11-14T09:27:57;20.03;50.26
74792;SHT30;63319;46.046;17.802;2022-11-14T09:31:23;20.06;49.79
74792;SHT30;63319;46.046;17.802;2022-11-14T09:34:44;20.30;49.76
74792;SHT30;63319;46.046;17.802;2022-11-14T09:38:09;20.79;48.66
74792;SHT30;63319;46.046;17.802;2022-11-14T09:41:57;21.18;48.32
74792;SHT30;63319;46.046;17.802;2022-11-14T09:45:21;21.49;47.57
74792;SHT30;63319;46.046;17.802;2022-11-14T09:48:42;21.64;47.13
74792;SHT30;63319;46.046;17.802;2022-11-14T09:52:42;21.70;47.21
74792;SHT30;63319;46.046;17.802;2022-11-14T09:56:11;21.60;45.75
74792;SHT30;63319;46.046;17.802;2022-11-14T09:59:33;21.98;44.87
74792;SHT30;63319;46.046;17.802;2022-11-14T10:14:16;21.49;46.67
74792;SHT30;63319;46.046;17.802;2022-11-14T10:17:48;22.02;47.38
74792;SHT30;63319;46.046;17.802;2022-11-14T10:29:28;23.27;44.95
74792;SHT30;63319;46.046;17.802;2022-11-14T10:40:12;23.18;44.62
74792;SHT30;63319;46.046;17.802;2022-11-14T10:43:45;23.28;45.24
74792;SHT30;63319;46.046;17.802;2022-11-14T10:47:13;23.49;45.27
74792;SHT30;63319;46.046;17.802;2022-11-14T10:50:42;23.46;45.33
74792;SHT30;63319;46.046;17.802;2022-11-14T10:57:59;23.25;44.67
74792;SHT30;63319;46.046;17.802;2022-11-14T11:01:44;23.04;45.05
74792;SHT30;63319;46.046;17.802;2022-11-14T11:05:22;23.52;45.84
74792;SHT30;63319;46.046;17.802;2022-11-14T11:08:54;23.18;45.36
74792;SHT30;63319;46.046;17.802;2022-11-14T11:13:03;23.34;45.19
74792;SHT30;63319;46.046;17.802;2022-11-14T11:16:26;23.22;44.52
74792;SHT30;63319;46.046;17.802;2022-11-14T11:19:49;23.11;44.98
74792;SHT30;63319;46.046;17.802;2022-11-14T11:23:26;23.11;45.11
74792;SHT30;63319;46.046;17.802;2022-11-14T11:27:41;22.97;43.94
74792;SHT30;63319;46.046;17.802;2022-11-14T11:31:03;22.96;43.32
74792;SHT30;63319;46.046;17.802;2022-11-14T11:34:27;23.27;44.23
74792;SHT30;63319;46.046;17.802;2022-11-14T11:37:54;23.25;44.90
74792;SHT30;63319;46.046;17.802;2022-11-14T11:41:28;23.18;42.31
74792;SHT30;63319;46.046;17.802;2022-11-14T11:45:14;23.42;41.67
74792;SHT30;63319;46.046;17.802;2022-11-14T11:48:38;22.79;43.65
74792;SHT30;63319;46.046;17.802;2022-11-14T11:52:25;23.22;42.99
74792;SHT30;63319;46.046;17.802;2022-11-14T11:55:53;22.63;43.84
74792;SHT30;63319;46.046;17.802;2022-11-14T11:59:33;22.25;43.65
74792;SHT30;63319;46.046;17.802;2022-11-14T12:02:55;22.62;44.31
74792;SHT30;63319;46.046;17.802;2022-11-14T12:09:45;22.04;43.52
74792;SHT30;63319;46.046;17.802;2022-11-14T12:32:56;22.21;44.60
74792;SHT30;63319;46.046;17.802;2022-11-14T12:36:27;22.23;43.10
74792;SHT30;63319;46.046;17.802;2022-11-14T12:43:46;21.91;44.18
74792;SHT30;63319;46.046;17.802;2022-11-14T12:50:39;22.23;43.88
74792;SHT30;63319;46.046;17.802;2022-11-14T12:54:01;21.61;44.68
74792;SHT30;63319;46.046;17.802;2022-11-14T12:57:39;21.44;44.14
74792;SHT30;63319;46.046;17.802;2022-11-14T13:04:53;21.44;44.90
74792;SHT30;63319;46.046;17.802;2022-11-14T13:12:30;20.99;46.19
74792;SHT30;63319;46.046;17.802;2022-11-14T13:16:25;20.69;47.25
74792;SHT30;63319;46.046;17.802;2022-11-14T13:24:02;21.30;46.78
74792;SHT30;63319;46.046;17.802;2022-11-14T13:27:30;21.70;46.39
74792;SHT30;63319;46.046;17.802;2022-11-14T13:42:10;22.63;44.64
74792;SHT30;63319;46.046;17.802;2022-11-14T13:49:28;22.76;44.09
74792;SHT30;63319;46.046;17.802;2022-11-14T13:52:53;22.79;43.76
74792;SHT30;63319;46.046;17.802;2022-11-14T14:11:29;22.67;50.83
74792;SHT30;63319;46.046;17.802;2022-11-14T14:15:16;22.60;45.86
74792;SHT30;63319;46.046;17.802;2022-11-14T14:19:21;22.63;46.01
74792;SHT30;63319;46.046;17.802;2022-11-14T14:23:29;22.70;48.14
74792;SHT30;63319;46.046;17.802;2022-11-14T14:30:31;22.76;49.17
74792;SHT30;63319;46.046;17.802;2022-11-14T14:33:54;22.76;49.10
74792;SHT30;63319;46.046;17.802;2022-11-14T14:41:05;22.73;49.44
74792;SHT30;63319;46.046;17.802;2022-11-14T14:44:30;22.71;49.35
74792;SHT30;63319;46.046;17.802;2022-11-14T14:48:11;22.73;49.59
74792;SHT30;63319;46.046;17.802;2022-11-14T14:51:34;22.76;49.64
74792;SHT30;63319;46.046;17.802;2022-11-14T14:54:56;22.71;49.71
74792;SHT30;63319;46.046;17.802;2022-11-14T15:01:44;22.66;49.47
74792;SHT30;63319;46.046;17.802;2022-11-14T15:05:06;22.62;49.59
74792;SHT30;63319;46.046;17.802;2022-11-14T15:08:28;22.59;49.53
74792;SHT30;63319;46.046;17.802;2022-11-14T15:11:54;22.57;49.78
74792;SHT30;63319;46.046;17.802;2022-11-14T15:15:18;22.53;49.81
74792;SHT30;63319;46.046;17.802;2022-11-14T15:18:42;22.50;49.35
74792;SHT30;63319;46.046;17.802;2022-11-14T15:22:21;22.49;49.54
74792;SHT30;63319;46.046;17.802;2022-11-14T15:25:43;22.49;49.71
74792;SHT30;63319;46.046;17.802;2022-11-14T15:29:10;22.46;49.34
74792;SHT30;63319;46.046;17.802;2022-11-14T15:32:35;22.46;49.56
74792;SHT30;63319;46.046;17.802;2022-11-14T15:36:15;22.42;49.64
74792;SHT30;63319;46.046;17.802;2022-11-14T15:39:41;22.39;49.39
74792;SHT30;63319;46.046;17.802;2022-11-14T15:43:34;22.39;49.56
74792;SHT30;63319;46.046;17.802;2022-11-14T15:46:56;22.39;49.63
74792;SHT30;63319;46.046;17.802;2022-11-14T15:50:31;22.36;49.53
74792;SHT30;63319;46.046;17.802;2022-11-14T15:53:53;22.33;49.63
74792;SHT30;63319;46.046;17.802;2022-11-14T15:57:14;22.31;49.82
74792;SHT30;63319;46.046;17.802;2022-11-14T16:00:45;22.29;49.83
74792;SHT30;63319;46.046;17.802;2022-11-14T16:04:13;22.28;49.70
74792;SHT30;63319;46.046;17.802;2022-11-14T16:07:34;22.25;49.86
74792;SHT30;63319;46.046;17.802;2022-11-14T16:10:56;22.26;50.16
74792;SHT30;63319;46.046;17.802;2022-11-14T16:14:17;22.22;49.68
74792;SHT30;63319;46.046;17.802;2022-11-14T16:17:40;22.22;49.89
74792;SHT30;63319;46.046;17.802;2022-11-14T16:21:02;22.21;49.61
74792;SHT30;63319;46.046;17.802;2022-11-14T16:24:24;22.19;50.03
74792;SHT30;63319;46.046;17.802;2022-11-14T16:27:51;22.16;49.89
74792;SHT30;63319;46.046;17.802;2022-11-14T16:31:13;22.13;49.93
74792;SHT30;63319;46.046;17.802;2022-11-14T16:34:35;22.11;50.01
74792;SHT30;63319;46.046;17.802;2022-11-14T16:37:56;22.13;50.10
74792;SHT30;63319;46.046;17.802;2022-11-14T16:41:18;22.06;50.04
74792;SHT30;63319;46.046;17.802;2022-11-14T16:44:39;22.09;50.29
74792;SHT30;63319;46.046;17.802;2022-11-14T16:48:27;22.06;49.96
74792;SHT30;63319;46.046;17.802;2022-11-14T16:51:49;22.02;50.21
74792;SHT30;63319;46.046;17.802;2022-11-14T16:55:11;22.04;50.46
74792;SHT30;63319;46.046;17.802;2022-11-14T16:58:54;22.01;49.82
74792;SHT30;63319;46.046;17.802;2022-11-14T17:02:16;21.98;50.43
74792;SHT30;63319;46.046;17.802;2022-11-14T17:05:44;21.97;50.25
74792;SHT30;63319;46.046;17.802;2022-11-14T17:09:06;21.95;50.10
74792;SHT30;63319;46.046;17.802;2022-11-14T17:12:27;21.91;49.97
74792;SHT30;63319;46.046;17.802;2022-11-14T17:15:48;21.95;50.54
74792;SHT30;63319;46.046;17.802;2022-11-14T17:19:10;21.91;50.51
74792;SHT30;63319;46.046;17.802;2022-11-14T17:22:31;21.92;50.69
74792;SHT30;63319;46.046;17.802;2022-11-14T17:26:00;21.90;50.43
74792;SHT30;63319;46.046;17.802;2022-11-14T17:29:22;21.90;50.21
74792;SHT30;63319;46.046;17.802;2022-11-14T17:32:43;21.87;50.65
74792;SHT30;63319;46.046;17.802;2022-11-14T17:36:07;21.87;50.55
74792;SHT30;63319;46.046;17.802;2022-11-14T17:39:29;21.87;50.79
74792;SHT30;63319;46.046;17.802;2022-11-14T17:42:51;21.84;50.95
74792;SHT30;63319;46.046;17.802;2022-11-14T17:46:13;21.84;50.78
74792;SHT30;63319;46.046;17.802;2022-11-14T17:49:36;21.84;50.68
74792;SHT30;63319;46.046;17.802;2022-11-14T17:52:58;21.81;50.81
74792;SHT30;63319;46.046;17.802;2022-11-14T17:56:21;21.83;50.81
74792;SHT30;63319;46.046;17.802;2022-11-14T17:59:43;21.80;50.61
74792;SHT30;63319;46.046;17.802;2022-11-14T18:03:04;21.80;51.02
74792;SHT30;63319;46.046;17.802;2022-11-14T18:06:26;21.80;51.11
74792;SHT30;63319;46.046;17.802;2022-11-14T18:09:48;21.80;50.89
74792;SHT30;63319;46.046;17.802;2022-11-14T18:13:09;21.77;50.96
74792;SHT30;63319;46.046;17.802;2022-11-14T18:16:32;21.77;50.88
74792;SHT30;63319;46.046;17.802;2022-11-14T18:20:18;21.77;51.09
74792;SHT30;63319;46.046;17.802;2022-11-14T18:23:40;21.74;51.08
74792;SHT30;63319;46.046;17.802;2022-11-14T18:27:01;21.77;51.06
74792;SHT30;63319;46.046;17.802;2022-11-14T18:30:23;21.77;51.11
74792;SHT30;63319;46.046;17.802;2022-11-14T18:34:01;21.74;51.12
74792;SHT30;63319;46.046;17.802;2022-11-14T18:37:23;21.75;50.90
74792;SHT30;63319;46.046;17.802;2022-11-14T18:40:46;21.73;50.99
74792;SHT30;63319;46.046;17.802;2022-11-14T18:44:16;21.71;51.18
74792;SHT30;63319;46.046;17.802;2022-11-14T18:47:38;21.74;51.04
74792;SHT30;63319;46.046;17.802;2022-11-14T18:51:05;21.71;51.08
74792;SHT30;63319;46.046;17.802;2022-11-14T18:54:27;21.71;51.25
74792;SHT30;63319;46.046;17.802;2022-11-14T18:57:48;21.73;51.14
74792;SHT30;63319;46.046;17.802;2022-11-14T19:01:12;21.70;51.25
74792;SHT30;63319;46.046;17.802;2022-11-14T19:04:34;21.70;51.15
74792;SHT30;63319;46.046;17.802;2022-11-14T19:07:57;21.68;51.24
74792;SHT30;63319;46.046;17.802;2022-11-14T19:11:26;21.67;51.51
74792;SHT30;63319;46.046;17.802;2022-11-14T19:15:06;21.67;51.05
74792;SHT30;63319;46.046;17.802;2022-11-14T19:18:29;21.67;51.28
74792;SHT30;63319;46.046;17.802;2022-11-14T19:21:51;21.64;51.20
74792;SHT30;63319;46.046;17.802;2022-11-14T19:25:13;21.67;51.40
74792;SHT30;63319;46.046;17.802;2022-11-14T19:28:35;21.65;51.33
74792;SHT30;63319;46.046;17.802;2022-11-14T19:31:56;21.64;51.39
74792;SHT30;63319;46.046;17.802;2022-11-14T19:35:18;21.63;51.67
74792;SHT30;63319;46.046;17.802;2022-11-14T19:38:41;21.60;51.16
74792;SHT30;63319;46.046;17.802;2022-11-14T19:42:02;21.63;51.31
74792;SHT30;63319;46.046;17.802;2022-11-14T19:45:24;21.61;51.43
74792;SHT30;63319;46.046;17.802;2022-11-14T19:48:47;21.60;51.46
74792;SHT30;63319;46.046;17.802;2022-11-14T19:52:09;21.60;51.38
74792;SHT30;63319;46.046;17.802;2022-11-14T19:55:31;21.58;51.49
74792;SHT30;63319;46.046;17.802;2022-11-14T19:58:54;21.60;51.61
74792;SHT30;63319;46.046;17.802;2022-11-14T20:02:16;21.58;51.60
74792;SHT30;63319;46.046;17.802;2022-11-14T20:05:38;21.60;51.22
74792;SHT30;63319;46.046;17.802;2022-11-14T20:09:04;21.58;51.48
74792;SHT30;63319;46.046;17.802;2022-11-14T20:12:26;21.57;51.40
74792;SHT30;63319;46.046;17.802;2022-11-14T20:15:47;21.56;51.45
74792;SHT30;63319;46.046;17.802;2022-11-14T20:19:08;21.57;51.75
74792;SHT30;63319;46.046;17.802;2022-11-14T20:22:29;21.57;51.42
74792;SHT30;63319;46.046;17.802;2022-11-14T20:25:52;21.57;51.62
74792;SHT30;63319;46.046;17.802;2022-11-14T20:29:13;21.56;51.58
74792;SHT30;63319;46.046;17.802;2022-11-14T20:32:35;21.51;51.22
74792;SHT30;63319;46.046;17.802;2022-11-14T20:36:03;21.51;51.39
74792;SHT30;63319;46.046;17.802;2022-11-14T20:39:25;21.53;51.55
74792;SHT30;63319;46.046;17.802;2022-11-14T20:42:47;21.53;51.57
74792;SHT30;63319;46.046;17.802;2022-11-14T20:49:35;21.51;51.60
74792;SHT30;63319;46.046;17.802;2022-11-14T20:52:56;21.54;51.59
74792;SHT30;63319;46.046;17.802;2022-11-14T20:56:18;21.53;51.71
74792;SHT30;63319;46.046;17.802;2022-11-14T20:59:42;21.53;51.51
74792;SHT30;63319;46.046;17.802;2022-11-14T21:03:04;21.51;51.55
74792;SHT30;63319;46.046;17.802;2022-11-14T21:06:25;21.50;51.60
74792;SHT30;63319;46.046;17.802;2022-11-14T21:09:46;21.49;51.67
74792;SHT30;63319;46.046;17.802;2022-11-14T21:13:29;21.51;51.37
74792;SHT30;63319;46.046;17.802;2022-11-14T21:17:09;21.49;51.76
74792;SHT30;63319;46.046;17.802;2022-11-14T21:20:30;21.50;51.56
74792;SHT30;63319;46.046;17.802;2022-11-14T21:23:52;21.46;51.69
74792;SHT30;63319;46.046;17.802;2022-11-14T21:27:14;21.49;51.66
74792;SHT30;63319;46.046;17.802;2022-11-14T21:30:37;21.49;51.39
74792;SHT30;63319;46.046;17.802;2022-11-14T21:34:00;21.50;51.57
74792;SHT30;63319;46.046;17.802;2022-11-14T21:37:22;21.50;51.55
74792;SHT30;63319;46.046;17.802;2022-11-14T21:40:53;21.49;51.59
74792;SHT30;63319;46.046;17.802;2022-11-14T21:44:16;21.47;51.84
74792;SHT30;63319;46.046;17.802;2022-11-14T21:47:38;21.47;51.72
74792;SHT30;63319;46.046;17.802;2022-11-14T21:51:19;21.50;51.85
74792;SHT30;63319;46.046;17.802;2022-11-14T21:54:41;21.49;51.66
74792;SHT30;63319;46.046;17.802;2022-11-14T21:58:02;21.46;51.87
74792;SHT30;63319;46.046;17.802;2022-11-14T22:01:23;21.47;51.67
74792;SHT30;63319;46.046;17.802;2022-11-14T22:05:03;21.47;51.52
74792;SHT30;63319;46.046;17.802;2022-11-14T22:08:25;21.42;51.80
74792;SHT30;63319;46.046;17.802;2022-11-14T22:11:46;21.44;51.93
74792;SHT30;63319;46.046;17.802;2022-11-14T22:15:08;21.46;51.82
74792;SHT30;63319;46.046;17.802;2022-11-14T22:18:29;21.43;51.82
74792;SHT30;63319;46.046;17.802;2022-11-14T22:21:51;21.49;51.26
74792;SHT30;63319;46.046;17.802;2022-11-14T22:25:12;21.46;51.66
74792;SHT30;63319;46.046;17.802;2022-11-14T22:28:35;21.42;51.54
74792;SHT30;63319;46.046;17.802;2022-11-14T22:31:56;21.43;51.68
74792;SHT30;63319;46.046;17.802;2022-11-14T22:35:18;21.44;51.63
74792;SHT30;63319;46.046;17.802;2022-11-14T22:38:40;21.42;51.81
74792;SHT30;63319;46.046;17.802;2022-11-14T22:42:02;21.40;51.56
74792;SHT30;63319;46.046;17.802;2022-11-14T22:45:23;21.44;51.56
74792;SHT30;63319;46.046;17.802;2022-11-14T22:48:46;21.43;51.82
74792;SHT30;63319;46.046;17.802;2022-11-14T22:52:07;21.42;51.67
74792;SHT30;63319;46.046;17.802;2022-11-14T22:55:28;21.39;51.74
74792;SHT30;63319;46.046;17.802;2022-11-14T22:58:50;21.39;51.79
74792;SHT30;63319;46.046;17.802;2022-11-14T23:02:11;21.40;51.69
74792;SHT30;63319;46.046;17.802;2022-11-14T23:05:36;21.42;51.60
74792;SHT30;63319;46.046;17.802;2022-11-14T23:08:59;21.42;51.52